createdAt,value
2018-09-27T00:00:58.462Z,100298.48
2018-09-27T00:03:27.246Z,100299.52
2018-09-27T00:05:57.288Z,100290.94
2018-09-27T00:08:26.673Z,100285.27
2018-09-27T00:10:55.424Z,100294.45
2018-09-27T00:13:24.270Z,100291.77
2018-09-27T00:15:53.055Z,100293.92
2018-09-27T00:18:21.954Z,100297.95
2018-09-27T00:20:50.767Z,100290.42
2018-09-27T00:23:19.708Z,100303.02
2018-09-27T00:25:49.407Z,100311.90
2018-09-27T00:28:19.104Z,100316.66
2018-09-27T00:30:47.993Z,100323.58
2018-09-27T00:33:17.459Z,100314.41
2018-09-27T00:35:46.844Z,100310.38
2018-09-27T00:38:15.959Z,100315.75
2018-09-27T00:40:44.747Z,100321.33
2018-09-27T00:43:14.375Z,100321.54
2018-09-27T00:45:45.205Z,100327.95
2018-09-27T00:48:16.750Z,100327.95
2018-09-27T00:50:46.255Z,100328.50
2018-09-27T00:53:15.703Z,100334.66
2018-09-27T00:55:44.474Z,100334.91
2018-09-27T00:58:13.926Z,100338.11
2018-09-27T01:00:43.465Z,100346.98
2018-09-27T01:03:13.369Z,100353.39
2018-09-27T01:05:42.223Z,100357.72
2018-09-27T01:08:11.056Z,100353.17
2018-09-27T01:10:39.981Z,100349.36
2018-09-27T01:13:08.826Z,100352.87
2018-09-27T01:15:37.819Z,100350.70
2018-09-27T01:18:06.800Z,100349.67
2018-09-27T01:20:35.709Z,100360.41
2018-09-27T01:23:04.518Z,100371.45
2018-09-27T01:25:33.872Z,100367.94
2018-09-27T01:28:03.210Z,100366.29
2018-09-27T01:30:31.978Z,100368.45
2018-09-27T01:33:00.731Z,100371.66
2018-09-27T01:35:30.144Z,100375.17
2018-09-27T01:37:58.928Z,100378.89
2018-09-27T01:40:27.870Z,100382.09
2018-09-27T01:42:57.255Z,100389.02
2018-09-27T01:45:26.938Z,100393.86
2018-09-27T01:47:55.744Z,100401.09
2018-09-27T01:50:24.578Z,100400.27
2018-09-27T01:52:54.628Z,100397.28
2018-09-27T01:55:23.444Z,100393.36
2018-09-27T01:57:53.148Z,100399.25
2018-09-27T02:00:22.739Z,100404.83
2018-09-27T02:02:51.499Z,100407.75
2018-09-27T02:05:20.460Z,100408.55
2018-09-27T02:07:49.268Z,100406.41
2018-09-27T02:10:18.402Z,100404.77
2018-09-27T02:12:47.531Z,100398.58
2018-09-27T02:15:16.545Z,100395.58
2018-09-27T02:17:45.420Z,100398.58
2018-09-27T02:20:14.829Z,100405.49
2018-09-27T02:22:43.639Z,100402.30
2018-09-27T02:25:12.911Z,100414.67
2018-09-27T02:27:42.632Z,100417.05
2018-09-27T02:30:11.471Z,100422.11
2018-09-27T02:32:40.222Z,100419.33
2018-09-27T02:35:10.351Z,100421.19
2018-09-27T02:37:39.352Z,100415.72
2018-09-27T02:40:09.412Z,100415.11
2018-09-27T02:42:38.897Z,100423.98
2018-09-27T02:45:08.348Z,100426.67
2018-09-27T02:47:37.189Z,100424.50
2018-09-27T02:50:05.972Z,100435.45
2018-09-27T02:52:35.328Z,100438.38
2018-09-27T02:55:04.161Z,100434.25
2018-09-27T02:57:33.901Z,100438.48
2018-09-27T03:00:03.547Z,100434.66
2018-09-27T03:02:32.362Z,100436.42
2018-09-27T03:05:01.139Z,100434.39
2018-09-27T03:07:30.009Z,100428.11
2018-09-27T03:09:58.816Z,100425.02
2018-09-27T03:12:27.749Z,100419.45
2018-09-27T03:14:56.612Z,100425.26
2018-09-27T03:17:25.466Z,100422.47
2018-09-27T03:19:54.275Z,100427.73
2018-09-27T03:22:23.524Z,100443.41
2018-09-27T03:24:53.066Z,100432.89
2018-09-27T03:27:22.460Z,100434.16
2018-09-27T03:29:51.279Z,100436.22
2018-09-27T03:32:20.095Z,100438.80
2018-09-27T03:34:49.699Z,100434.16
2018-09-27T03:37:18.696Z,100440.55
2018-09-27T03:39:48.125Z,100448.29
2018-09-27T03:42:17.083Z,100449.32
2018-09-27T03:44:46.149Z,100460.25
2018-09-27T03:47:14.991Z,100457.39
2018-09-27T03:49:43.783Z,100454.50
2018-09-27T03:52:13.443Z,100453.66
2018-09-27T03:54:42.890Z,100447.06
2018-09-27T03:57:11.700Z,100453.27
2018-09-27T03:59:42.874Z,100456.35
2018-09-27T04:02:11.712Z,100460.57
2018-09-27T04:04:41.421Z,100449.86
2018-09-27T04:07:11.100Z,100462.62
2018-09-27T04:09:39.882Z,100464.17
2018-09-27T04:12:09.489Z,100466.03
2018-09-27T04:14:38.316Z,100474.58
2018-09-27T04:17:07.420Z,100472.92
2018-09-27T04:19:36.466Z,100467.77
2018-09-27T04:22:06.248Z,100467.69
2018-09-27T04:24:35.950Z,100462.33
2018-09-27T04:27:05.563Z,100471.60
2018-09-27T04:29:34.373Z,100474.88
2018-09-27T04:32:03.178Z,100471.06
2018-09-27T04:34:32.574Z,100474.46
2018-09-27T04:37:02.120Z,100483.52
2018-09-27T04:39:31.041Z,100485.61
2018-09-27T04:41:59.865Z,100473.84
2018-09-27T04:44:29.249Z,100478.89
2018-09-27T04:46:58.069Z,100481.97
2018-09-27T04:49:27.020Z,100488.98
2018-09-27T04:51:56.559Z,100494.73
2018-09-27T04:54:25.709Z,100494.82
2018-09-27T04:56:54.528Z,100505.65
2018-09-27T04:59:24.212Z,100500.38
2018-09-27T05:01:53.100Z,100499.55
2018-09-27T05:04:22.038Z,100496.24
2018-09-27T05:06:50.896Z,100498.17
2018-09-27T05:09:20.223Z,100489.55
2018-09-27T05:11:49.147Z,100490.45
2018-09-27T05:14:18.283Z,100493.13
2018-09-27T05:16:48.527Z,100496.12
2018-09-27T05:19:17.633Z,100504.98
2018-09-27T05:21:46.615Z,100511.79
2018-09-27T05:24:15.564Z,100520.93
2018-09-27T05:26:45.615Z,100520.93
2018-09-27T05:29:14.943Z,100525.50
2018-09-27T05:31:43.775Z,100526.05
2018-09-27T05:34:13.482Z,100525.53
2018-09-27T05:36:42.301Z,100526.08
2018-09-27T05:39:11.780Z,100525.88
2018-09-27T05:41:40.728Z,100527.32
2018-09-27T05:44:10.008Z,100524.16
2018-09-27T05:46:39.149Z,100525.61
2018-09-27T05:49:08.090Z,100531.78
2018-09-27T05:51:37.854Z,100535.80
2018-09-27T05:54:06.623Z,100535.08
2018-09-27T05:56:35.465Z,100536.73
2018-09-27T05:59:04.984Z,100528.37
2018-09-27T06:01:33.799Z,100520.05
2018-09-27T06:04:02.634Z,100525.63
2018-09-27T06:06:32.264Z,100524.56
2018-09-27T06:09:01.073Z,100532.03
2018-09-27T06:11:30.036Z,100521.84
2018-09-27T06:13:58.892Z,100519.75
2018-09-27T06:16:27.768Z,100520.70
2018-09-27T06:18:57.066Z,100531.81
2018-09-27T06:21:26.451Z,100543.47
2018-09-27T06:23:55.305Z,100536.27
2018-09-27T06:26:24.841Z,100539.03
2018-09-27T06:28:54.294Z,100532.20
2018-09-27T06:31:23.732Z,100538.88
2018-09-27T06:33:52.572Z,100542.16
2018-09-27T06:36:22.300Z,100530.08
2018-09-27T06:38:51.158Z,100529.63
2018-09-27T06:41:20.497Z,100532.63
2018-09-27T06:43:49.385Z,100542.42
2018-09-27T06:46:19.100Z,100540.78
2018-09-27T06:48:48.960Z,100538.61
2018-09-27T06:51:18.924Z,100533.07
2018-09-27T06:53:48.727Z,100527.91
2018-09-27T06:56:18.186Z,100524.78
2018-09-27T06:58:48.021Z,100521.36
2018-09-27T07:01:23.446Z,100521.32
2018-09-27T07:03:52.391Z,100524.98
2018-09-27T07:06:21.712Z,100523.84
2018-09-27T07:08:50.754Z,100524.55
2018-09-27T07:11:19.798Z,100526.66
2018-09-27T07:13:48.893Z,100529.59
2018-09-27T07:16:17.991Z,100533.03
2018-09-27T07:18:46.929Z,100544.12
2018-09-27T07:21:17.136Z,100549.16
2018-09-27T07:23:45.993Z,100546.33
2018-09-27T07:26:15.742Z,100554.58
2018-09-27T07:28:45.548Z,100557.36
2018-09-27T07:31:14.800Z,100559.77
2018-09-27T07:33:43.731Z,100563.47
2018-09-27T07:36:13.299Z,100556.88
2018-09-27T07:38:42.347Z,100553.20
2018-09-27T07:41:11.139Z,100552.68
2018-09-27T07:43:40.089Z,100551.00
2018-09-27T07:46:10.036Z,100563.52
2018-09-27T07:48:38.977Z,100566.91
2018-09-27T07:51:08.434Z,100565.91
2018-09-27T07:53:38.453Z,100567.35
2018-09-27T07:56:07.442Z,100560.36
2018-09-27T07:58:36.845Z,100571.22
2018-09-27T08:01:06.422Z,100569.23
2018-09-27T08:03:35.343Z,100564.70
2018-09-27T08:06:04.265Z,100570.55
2018-09-27T08:08:33.354Z,100572.28
2018-09-27T08:11:02.141Z,100566.59
2018-09-27T08:13:31.221Z,100564.03
2018-09-27T08:16:00.249Z,100559.69
2018-09-27T08:18:29.173Z,100566.36
2018-09-27T08:20:58.156Z,100562.84
2018-09-27T08:23:27.597Z,100555.45
2018-09-27T08:25:57.006Z,100556.09
2018-09-27T08:28:26.353Z,100556.70
2018-09-27T08:30:55.397Z,100550.25
2018-09-27T08:33:24.322Z,100553.25
2018-09-27T08:35:53.592Z,100545.98
2018-09-27T08:38:22.482Z,100549.92
2018-09-27T08:40:51.311Z,100551.20
2018-09-27T08:43:20.936Z,100545.92
2018-09-27T08:45:49.801Z,100546.30
2018-09-27T08:48:19.033Z,100541.88
2018-09-27T08:50:48.759Z,100535.03
2018-09-27T08:53:19.124Z,100527.69
2018-09-27T08:55:48.227Z,100537.34
2018-09-27T08:58:18.626Z,100528.81
2018-09-27T09:00:48.643Z,100530.69
2018-09-27T09:03:17.679Z,100537.27
2018-09-27T09:05:46.809Z,100532.56
2018-09-27T09:08:16.240Z,100531.03
2018-09-27T09:10:45.090Z,100527.58
2018-09-27T09:13:14.048Z,100524.89
2018-09-27T09:18:25.913Z,100522.23
2018-09-27T09:20:54.818Z,100519.90
2018-09-27T09:23:24.516Z,100527.61
2018-09-27T09:25:54.579Z,100538.44
2018-09-27T09:28:24.214Z,100528.98
2018-09-27T09:30:53.289Z,100512.25
2018-09-27T09:33:22.213Z,100508.28
2018-09-27T09:35:52.359Z,100509.05
2018-09-27T09:38:21.401Z,100504.90
2018-09-27T09:40:51.007Z,100506.19
2018-09-27T09:43:20.043Z,100505.75
2018-09-27T09:45:52.903Z,100508.72
2018-09-27T09:48:22.213Z,100501.18
2018-09-27T09:50:51.335Z,100498.97
2018-09-27T09:53:27.041Z,100500.67
2018-09-27T09:56:02.894Z,100495.14
2018-09-27T09:59:04.083Z,100497.08
2018-09-27T10:01:33.184Z,100476.94
2018-09-27T10:06:53.397Z,100459.58
2018-09-27T10:09:22.963Z,100468.88
2018-09-27T10:11:52.158Z,100467.53
2018-09-27T10:14:22.728Z,100454.27
2018-09-27T10:17:07.132Z,100453.13
2018-09-27T10:22:27.912Z,100449.89
2018-09-27T10:25:00.404Z,100438.13
2018-09-27T10:27:44.907Z,100430.14
2018-09-27T10:30:21.605Z,100421.47
2018-09-27T10:33:06.755Z,100422.48
2018-09-27T10:39:17.688Z,100412.41
2018-09-27T10:47:10.577Z,100404.58
2018-09-27T10:50:33.399Z,100409.22
2018-09-27T10:53:03.360Z,100403.52
2018-09-27T10:55:43.860Z,100393.30
2018-09-27T10:58:13.536Z,100381.62
2018-09-27T11:00:43.379Z,100383.28
2018-09-27T11:03:12.385Z,100368.05
2018-09-27T11:05:41.675Z,100374.98
2018-09-27T11:08:10.670Z,100373.89
2018-09-27T11:10:39.737Z,100369.94
2018-09-27T11:13:09.499Z,100364.72
2018-09-27T11:15:39.082Z,100358.73
2018-09-27T11:18:08.132Z,100349.20
2018-09-27T11:20:38.001Z,100350.98
2018-09-27T11:23:07.022Z,100333.32
2018-09-27T11:25:36.583Z,100318.13
2018-09-27T11:28:05.914Z,100319.48
2018-09-27T11:30:35.634Z,100318.39
2018-09-27T11:33:04.605Z,100325.17
2018-09-27T11:35:34.244Z,100330.64
2018-09-27T11:38:03.241Z,100326.89
2018-09-27T11:40:32.125Z,100318.54
2018-09-27T11:43:01.100Z,100310.58
2018-09-27T11:45:30.548Z,100306.70
2018-09-27T11:47:59.448Z,100301.25
2018-09-27T11:50:28.306Z,100292.90
2018-09-27T11:52:58.816Z,100290.07
2018-09-27T11:55:27.724Z,100275.31
2018-09-27T11:57:57.439Z,100262.97
2018-09-27T12:00:27.015Z,100252.42
2018-09-27T12:02:55.888Z,100253.17
2018-09-27T12:05:24.779Z,100239.11
2018-09-27T12:07:53.724Z,100227.68
2018-09-27T12:10:22.708Z,100219.83
2018-09-27T12:12:51.738Z,100208.37
2018-09-27T12:15:20.988Z,100205.55
2018-09-27T12:17:50.867Z,100203.27
2018-09-27T12:20:19.841Z,100193.48
2018-09-27T12:22:48.962Z,100189.91
2018-09-27T12:25:19.206Z,100176.94
2018-09-27T12:27:49.078Z,100167.52
2018-09-27T12:30:18.191Z,100157.59
2018-09-27T12:32:48.036Z,100152.30
2018-09-27T12:35:17.844Z,100141.70
2018-09-27T12:37:46.929Z,100135.50
2018-09-27T12:40:16.505Z,100121.16
2018-09-27T12:42:45.542Z,100122.20
2018-09-27T12:45:14.746Z,100121.09
2018-09-27T12:47:43.837Z,100107.30
2018-09-27T12:50:12.821Z,100102.15
2018-09-27T12:52:42.597Z,100091.84
2018-09-27T12:55:17.198Z,100085.11
2018-09-27T12:57:46.825Z,100068.02
2018-09-27T13:00:16.782Z,100050.00
2018-09-27T13:02:45.734Z,100050.72
2018-09-27T13:05:15.187Z,100040.13
2018-09-27T13:07:49.363Z,100040.28
2018-09-27T13:10:19.670Z,100032.22
2018-09-27T13:12:49.158Z,100018.77
2018-09-27T13:15:19.510Z,100006.04
2018-09-27T13:18:02.424Z,99994.46
2018-09-27T13:20:32.242Z,99985.80
2018-09-27T13:23:03.280Z,99965.44
2018-09-27T13:25:32.892Z,99952.81
2018-09-27T13:28:02.404Z,99940.35
2018-09-27T13:30:31.801Z,99938.97
2018-09-27T13:33:00.883Z,99929.56
2018-09-27T13:35:30.516Z,99921.44
2018-09-27T13:37:59.339Z,99915.38
2018-09-27T13:40:28.224Z,99902.91
2018-09-27T13:42:57.130Z,99891.64
2018-09-27T13:45:25.979Z,99878.43
2018-09-27T13:47:55.178Z,99864.17
2018-09-27T13:50:24.229Z,99845.06
2018-09-27T13:52:53.549Z,99831.63
2018-09-27T13:55:22.378Z,99825.03
2018-09-27T13:57:52.141Z,99816.47
2018-09-27T14:00:21.724Z,99803.91
2018-09-27T14:02:51.173Z,99795.67
2018-09-27T14:05:20.128Z,99784.19
2018-09-27T14:07:49.965Z,99774.02
2018-09-27T14:10:19.312Z,99767.81
2018-09-27T14:12:48.909Z,99763.02
2018-09-27T14:15:18.077Z,99762.50
2018-09-27T14:17:47.077Z,99745.31
2018-09-27T14:20:16.092Z,99734.90
2018-09-27T14:22:44.991Z,99721.80
2018-09-27T14:25:14.649Z,99722.94
2018-09-27T14:27:44.273Z,99703.16
2018-09-27T14:30:13.912Z,99689.55
2018-09-27T14:32:43.469Z,99683.45
2018-09-27T14:35:13.027Z,99664.74
2018-09-27T14:37:41.934Z,99662.48
2018-09-27T14:40:10.956Z,99658.42
2018-09-27T14:42:40.011Z,99650.86
2018-09-27T14:45:08.939Z,99651.39
2018-09-27T14:47:38.002Z,99638.72
2018-09-27T14:50:07.738Z,99625.50
2018-09-27T14:52:37.255Z,99622.79
2018-09-27T14:55:06.759Z,99621.84
2018-09-27T14:57:35.637Z,99609.28
2018-09-27T15:00:05.585Z,99598.84
2018-09-27T15:02:35.413Z,99606.47
2018-09-27T15:05:04.788Z,99593.27
2018-09-27T15:07:34.100Z,99591.45
2018-09-27T15:10:03.567Z,99576.95
2018-09-27T15:12:32.641Z,99569.98
2018-09-27T15:15:01.536Z,99565.74
2018-09-27T15:17:30.584Z,99569.81
2018-09-27T15:19:59.441Z,99567.45
2018-09-27T15:22:28.503Z,99551.82
2018-09-27T15:24:57.733Z,99551.81
2018-09-27T15:27:27.858Z,99552.63
2018-09-27T15:29:57.378Z,99557.23
2018-09-27T15:32:26.226Z,99544.81
2018-09-27T15:34:55.886Z,99543.21
2018-09-27T15:37:24.880Z,99545.09
2018-09-27T15:39:53.818Z,99521.37
2018-09-27T15:42:22.686Z,99532.72
2018-09-27T15:44:51.705Z,99508.99
2018-09-27T15:47:20.718Z,99507.91
2018-09-27T15:49:49.645Z,99503.61
2018-09-27T15:52:20.754Z,99499.02
2018-09-27T15:54:49.689Z,99498.23
2018-09-27T15:57:19.586Z,99499.60
2018-09-27T15:59:50.738Z,99486.92
2018-09-27T16:02:19.589Z,99501.78
2018-09-27T16:04:49.066Z,99469.93
2018-09-27T16:07:19.413Z,99451.59
2018-09-27T16:09:49.921Z,99451.05
2018-09-27T16:12:19.754Z,99447.81
2018-09-27T16:14:48.984Z,99443.50
2018-09-27T16:17:18.756Z,99444.59
2018-09-27T16:19:50.517Z,99433.25
2018-09-27T16:22:19.529Z,99435.14
2018-09-27T16:24:49.579Z,99423.80
2018-09-27T16:30:04.972Z,99409.52
2018-09-27T16:32:35.369Z,99401.69
2018-09-27T16:35:07.333Z,99411.39
2018-09-27T16:37:36.684Z,99408.14
2018-09-27T16:40:08.316Z,99404.36
2018-09-27T16:47:22.312Z,99391.12
2018-09-27T16:49:51.185Z,99387.86
2018-09-27T16:52:20.765Z,99373.31
2018-09-27T16:54:49.633Z,99371.69
2018-09-27T16:57:18.704Z,99349.81
2018-09-27T16:59:48.184Z,99339.81
2018-09-27T17:02:17.196Z,99338.44
2018-09-27T17:04:46.884Z,99353.83
2018-09-27T17:07:16.494Z,99361.36
2018-09-27T17:09:46.127Z,99357.02
2018-09-27T17:12:15.024Z,99351.86
2018-09-27T17:14:44.443Z,99358.08
2018-09-27T17:17:13.371Z,99373.98
2018-09-27T17:19:42.355Z,99351.55
2018-09-27T17:22:12.144Z,99348.03
2018-09-27T17:24:41.780Z,99360.41
2018-09-27T17:27:11.230Z,99359.55
2018-09-27T17:29:40.118Z,99362.77
2018-09-27T17:32:09.328Z,99365.98
2018-09-27T17:34:39.012Z,99356.79
2018-09-27T17:37:08.045Z,99363.42
2018-09-27T17:39:37.506Z,99360.95
2018-09-27T17:42:06.608Z,99365.99
2018-09-27T17:44:35.526Z,99364.24
2018-09-27T17:47:04.682Z,99363.60
2018-09-27T17:49:33.704Z,99371.88
2018-09-27T17:52:03.192Z,99369.10
2018-09-27T17:54:32.053Z,99355.86
2018-09-27T17:57:00.872Z,99365.19
2018-09-27T17:59:30.321Z,99373.48
2018-09-27T18:01:59.676Z,99361.62
2018-09-27T18:04:28.510Z,99360.74
2018-09-27T18:06:58.079Z,99357.45
2018-09-27T18:09:28.320Z,99351.25
2018-09-27T18:11:57.159Z,99338.33
2018-09-27T18:14:26.011Z,99338.58
2018-09-27T18:16:54.892Z,99333.44
2018-09-27T18:19:24.417Z,99332.38
2018-09-27T18:21:53.267Z,99321.89
2018-09-27T18:24:22.564Z,99322.45
2018-09-27T18:26:51.908Z,99318.95
2018-09-27T18:29:21.351Z,99325.15
2018-09-27T18:31:50.204Z,99319.52
2018-09-27T18:34:19.620Z,99302.55
2018-09-27T18:36:49.281Z,99311.41
2018-09-27T18:39:18.285Z,99296.86
2018-09-27T18:41:48.551Z,99302.48
2018-09-27T18:44:17.581Z,99299.52
2018-09-27T18:46:46.976Z,99281.73
2018-09-27T18:49:16.042Z,99274.20
2018-09-27T18:51:46.809Z,99261.81
2018-09-27T18:54:15.728Z,99271.48
2018-09-27T18:56:44.958Z,99258.55
2018-09-27T18:59:14.675Z,99244.56
2018-09-27T19:01:44.073Z,99218.47
2018-09-27T19:04:12.877Z,99208.23
2018-09-27T19:06:42.618Z,99199.09
2018-09-27T19:09:12.232Z,99215.52
2018-09-27T19:11:41.176Z,99213.64
2018-09-27T19:14:10.304Z,99231.98
2018-09-27T19:16:39.978Z,99238.17
2018-09-27T19:19:09.843Z,99250.31
2018-09-27T19:21:39.068Z,99257.61
2018-09-27T19:24:09.732Z,99251.66
2018-09-27T19:26:39.256Z,99247.63
2018-09-27T19:29:08.940Z,99262.70
2018-09-27T19:31:40.169Z,99262.73
2018-09-27T19:39:30.251Z,99254.41
2018-09-27T19:41:59.079Z,99255.25
2018-09-27T19:44:27.992Z,99265.23
2018-09-27T19:46:56.838Z,99241.28
2018-09-27T19:49:25.748Z,99258.78
2018-09-27T19:51:55.844Z,99259.06
2018-09-27T19:54:24.692Z,99278.69
2018-09-27T19:56:53.621Z,99260.38
2018-09-27T19:59:24.548Z,99262.80
2018-09-27T20:01:53.946Z,99258.47
2018-09-27T20:04:22.794Z,99259.00
2018-09-27T20:06:52.248Z,99253.63
2018-09-27T20:09:21.764Z,99271.66
2018-09-27T20:11:50.624Z,99256.84
2018-09-27T20:14:20.196Z,99249.53
2018-09-27T20:16:49.173Z,99259.48
2018-09-27T20:19:18.506Z,99247.91
2018-09-27T20:21:47.941Z,99262.59
2018-09-27T20:24:18.060Z,99275.42
2018-09-27T20:26:47.150Z,99256.23
2018-09-27T20:29:17.118Z,99255.55
2018-09-27T20:31:46.397Z,99251.95
2018-09-27T20:34:16.484Z,99283.55
2018-09-27T20:36:45.461Z,99288.48
2018-09-27T20:39:14.849Z,99295.37
2018-09-27T20:41:43.749Z,99296.05
2018-09-27T20:44:12.572Z,99298.09
2018-09-27T20:46:41.483Z,99307.41
2018-09-27T20:49:10.307Z,99295.52
2018-09-27T20:51:40.108Z,99290.63
2018-09-27T20:54:09.094Z,99310.48
2018-09-27T20:56:38.582Z,99306.94
2018-09-27T20:59:08.629Z,99338.36
2018-09-27T21:01:37.740Z,99391.92
2018-09-27T21:04:06.632Z,99365.45
2018-09-27T21:06:35.673Z,99371.14
2018-09-27T21:09:06.635Z,99376.27
2018-09-27T21:11:36.588Z,99391.16
2018-09-27T21:14:05.455Z,99413.98
2018-09-27T21:16:34.326Z,99404.65
2018-09-27T21:19:03.210Z,99411.66
2018-09-27T21:21:31.996Z,99411.51
2018-09-27T21:24:00.957Z,99431.91
2018-09-27T21:26:31.023Z,99432.86
2018-09-27T21:29:00.344Z,99439.36
2018-09-27T21:31:29.140Z,99456.67
2018-09-27T21:33:58.006Z,99456.54
2018-09-27T21:36:27.733Z,99458.63
2018-09-27T21:38:56.571Z,99458.59
2018-09-27T21:41:25.448Z,99470.88
2018-09-27T21:43:54.275Z,99464.11
2018-09-27T21:46:24.043Z,99465.67
2018-09-27T21:48:52.835Z,99472.89
2018-09-27T21:51:22.108Z,99450.51
2018-09-27T21:53:51.675Z,99465.36
2018-09-27T21:56:20.424Z,99487.97
2018-09-27T21:58:49.827Z,99491.06
2018-09-27T22:01:19.463Z,99505.05
2018-09-27T22:03:48.543Z,99494.22
2018-09-27T22:06:17.614Z,99498.61
2018-09-27T22:08:47.138Z,99513.25
2018-09-27T22:11:16.597Z,99510.75
2018-09-27T22:13:45.479Z,99501.53
2018-09-27T22:16:15.047Z,99509.19
2018-09-27T22:18:44.099Z,99524.64
2018-09-27T22:21:12.965Z,99530.44
2018-09-27T22:23:41.857Z,99525.04
2018-09-27T22:26:11.264Z,99531.95
2018-09-27T22:28:41.032Z,99528.90
2018-09-27T22:31:09.838Z,99540.27
2018-09-27T22:33:38.672Z,99548.23
2018-09-27T22:36:08.043Z,99559.30
2018-09-27T22:38:37.247Z,99558.91
2018-09-27T22:41:06.186Z,99566.86
2018-09-27T22:43:35.212Z,99573.71
2018-09-27T22:46:04.100Z,99577.34
2018-09-27T22:48:33.137Z,99573.98
2018-09-27T22:51:02.871Z,99558.02
2018-09-27T22:53:32.296Z,99589.84
2018-09-27T22:56:01.232Z,99597.64
2018-09-27T22:58:31.366Z,99607.55
2018-09-27T23:01:00.763Z,99603.80
2018-09-27T23:03:29.591Z,99595.55
2018-09-27T23:05:58.496Z,99612.95
2018-09-27T23:08:27.947Z,99607.45
2018-09-27T23:10:56.876Z,99610.16
2018-09-27T23:13:25.707Z,99615.05
2018-09-27T23:15:54.555Z,99607.58
2018-09-27T23:18:25.464Z,99615.41
2018-09-27T23:20:54.311Z,99624.08
2018-09-27T23:23:23.115Z,99626.05
2018-09-27T23:25:52.564Z,99631.50
2018-09-27T23:28:21.889Z,99635.44
2018-09-27T23:30:50.767Z,99639.14
2018-09-27T23:33:20.565Z,99648.08
2018-09-27T23:35:50.187Z,99650.45
2018-09-27T23:38:19.421Z,99653.84
2018-09-27T23:40:48.586Z,99659.69
2018-09-27T23:43:17.713Z,99666.06
2018-09-27T23:45:46.560Z,99667.19
2018-09-27T23:48:16.450Z,99673.14
2018-09-27T23:50:45.275Z,99670.56
2018-09-27T23:53:14.779Z,99672.00
2018-09-27T23:55:43.786Z,99669.94
2018-09-27T23:58:13.280Z,99665.18
